Time;durP1;ratioP1;P1;durP2;ratioP2;P2;SDS_P1;SDS_P2;PMS_P1;PMS_P2;Temp;Humidity;BMP_temperature;BMP_pressure;BME280_temperature;BME280_humidity;BME280_pressure;Samples;Min_cycle;Max_cycle;Signal;HPM_P1;HPM_P2
2020/12/27 00:02:07;;;;;;;5.47;4.97;;;;;;;5.42;69.74;100064.13;5039120;28;20214;-73
2020/12/27 00:04:33;;;;;;;5.13;4.70;;;;;;;5.46;69.77;100033.16;5039105;28;20178;-73
2020/12/27 00:07:13;;;;;;;5.20;4.80;;;;;;;5.32;70.26;100030.34;5039051;28;20428;-73
2020/12/27 00:09:40;;;;;;;4.90;4.50;;;;;;;5.22;70.41;100025.81;5038820;28;20170;-74
2020/12/27 00:12:09;;;;;;;5.70;4.50;;;;;;;5.18;70.68;100024.00;5038902;28;20456;-73
2020/12/27 00:14:34;;;;;;;5.23;4.83;;;;;;;5.21;70.21;100012.03;5038909;28;20863;-73
2020/12/27 00:17:10;;;;;;;5.47;5.07;;;;;;;5.17;70.17;100017.13;5039272;28;20504;-73
2020/12/27 00:19:36;;;;;;;4.87;4.47;;;;;;;5.05;70.83;100007.41;5038794;28;20165;-73
2020/12/27 00:22:02;;;;;;;5.57;5.13;;;;;;;5.33;69.93;100003.66;5038967;28;20423;-73
2020/12/27 00:24:27;;;;;;;5.17;4.70;;;;;;;5.19;70.28;99994.75;5038900;28;20461;-72
2020/12/27 00:26:53;;;;;;;5.40;5.00;;;;;;;5.29;71.03;99988.94;5038845;28;20670;-73
2020/12/27 00:29:18;;;;;;;5.37;4.87;;;;;;;5.10;71.71;99991.97;5038922;28;20548;-73
2020/12/27 00:31:53;;;;;;;5.60;5.10;;;;;;;5.36;71.54;99979.56;5038599;28;20529;-73
2020/12/27 00:34:19;;;;;;;5.17;4.77;;;;;;;5.16;72.88;99966.28;5038564;28;20573;-72
2020/12/27 00:36:44;;;;;;;5.53;5.03;;;;;;;5.03;74.53;99966.03;5038506;28;20515;-73
2020/12/27 00:39:10;;;;;;;5.33;4.83;;;;;;;4.93;74.53;99958.09;5038325;28;20272;-72
2020/12/27 00:41:35;;;;;;;5.60;5.10;;;;;;;5.11;74.90;99953.25;5038563;28;20213;-73
2020/12/27 00:44:01;;;;;;;5.93;5.33;;;;;;;5.12;73.56;99933.47;5038434;28;20647;-73
2020/12/27 00:46:27;;;;;;;4.97;4.47;;;;;;;5.25;73.02;99927.69;5038350;28;20606;-72
2020/12/27 00:48:52;;;;;;;4.83;4.43;;;;;;;5.37;72.99;99916.69;5038498;28;20507;-72
2020/12/27 00:51:24;;;;;;;5.37;4.90;;;;;;;5.19;73.03;99924.97;5038317;28;20178;-73
2020/12/27 00:53:50;;;;;;;4.70;4.30;;;;;;;4.99;72.91;99911.69;5038150;28;20221;-72
2020/12/27 00:56:15;;;;;;;5.20;4.70;;;;;;;4.92;73.89;99905.53;5038368;28;20421;-73
2020/12/27 00:58:42;;;;;;;6.60;4.97;;;;;;;5.23;72.80;99903.53;5037476;28;20181;-73
2020/12/27 01:01:08;;;;;;;5.47;4.97;;;;;;;4.91;74.04;99901.22;5038219;28;20554;-73
2020/12/27 01:03:33;;;;;;;7.23;4.80;;;;;;;4.88;74.38;99885.66;5038009;28;20410;-73
2020/12/27 01:05:59;;;;;;;4.93;4.53;;;;;;;5.11;73.58;99887.81;5038076;28;20488;-73
2020/12/27 01:08:26;;;;;;;5.30;4.80;;;;;;;4.85;75.40;99870.13;5038010;28;20236;-72
2020/12/27 01:10:51;;;;;;;6.03;4.30;;;;;;;5.01;74.28;99866.13;5038281;28;20233;-71
2020/12/27 01:13:17;;;;;;;4.80;4.40;;;;;;;4.86;75.11;99870.16;5037771;28;20974;-72
2020/12/27 01:15:42;;;;;;;5.43;4.93;;;;;;;4.99;74.15;99854.88;5037824;28;20178;-73
2020/12/27 01:18:08;;;;;;;5.03;4.63;;;;;;;5.24;74.12;99840.66;5038160;28;20449;-73
2020/12/27 01:20:34;;;;;;;5.30;4.87;;;;;;;5.26;73.63;99835.53;5037665;28;20200;-72
2020/12/27 01:22:59;;;;;;;6.10;5.60;;;;;;;5.28;73.80;99824.38;5037669;28;20170;-73
2020/12/27 01:25:24;;;;;;;4.77;4.37;;;;;;;5.26;74.32;99818.28;5037346;28;20753;-74
2020/12/27 01:27:50;;;;;;;6.17;5.13;;;;;;;5.09;75.01;99815.44;5037628;28;20281;-73
2020/12/27 01:30:15;;;;;;;6.60;5.30;;;;;;;4.92;76.52;99803.94;5037727;28;20171;-73
2020/12/27 01:32:41;;;;;;;6.07;5.57;;;;;;;5.44;75.21;99801.34;5037396;28;20220;-73
2020/12/27 01:35:06;;;;;;;5.83;5.27;;;;;;;5.08;75.14;99793.03;5037639;28;20201;-72
2020/12/27 01:37:32;;;;;;;6.60;5.77;;;;;;;4.68;76.99;99794.91;5037966;28;20413;-73
2020/12/27 01:39:57;;;;;;;6.50;5.90;;;;;;;4.71;76.60;99780.34;5037443;28;20182;-73
2020/12/27 01:42:23;;;;;;;6.30;5.70;;;;;;;4.85;74.66;99779.72;5037529;28;20525;-73
2020/12/27 01:44:48;;;;;;;6.50;5.90;;;;;;;5.10;74.30;99769.81;5037717;28;20166;-73
2020/12/27 01:47:19;;;;;;;5.63;5.13;;;;;;;4.94;74.04;99787.66;5037295;28;20185;-72
2020/12/27 01:49:50;;;;;;;5.87;5.27;;;;;;;4.62;74.36;99787.94;5036968;28;20440;-71
2020/12/27 01:52:15;;;;;;;5.60;5.13;;;;;;;4.81;75.26;99771.06;5037055;28;20936;-73
2020/12/27 01:54:40;;;;;;;6.43;5.37;;;;;;;4.68;74.93;99757.06;5037198;28;20420;-72
2020/12/27 01:57:13;;;;;;;6.60;6.00;;;;;;;4.79;75.63;99749.50;5037501;28;20189;-72
2020/12/27 01:59:39;;;;;;;6.50;5.90;;;;;;;4.93;74.28;99751.47;5036382;28;20220;-72
2020/12/27 02:02:06;;;;;;;6.10;5.50;;;;;;;4.49;75.23;99734.34;5036348;28;20421;-71
2020/12/27 02:04:32;;;;;;;5.90;5.40;;;;;;;4.62;74.68;99717.38;5037189;28;20593;-72
2020/12/27 02:06:58;;;;;;;6.23;5.63;;;;;;;4.38;75.27;99706.66;5037102;28;20833;-72
2020/12/27 02:09:23;;;;;;;6.40;5.80;;;;;;;4.53;74.88;99697.41;5036512;28;20432;-73
2020/12/27 02:12:07;;;;;;;6.20;5.70;;;;;;;4.43;74.97;99686.06;5036896;28;20174;-73
2020/12/27 02:14:32;;;;;;;6.77;6.10;;;;;;;4.28;75.14;99668.63;5037031;28;20170;-73
2020/12/27 02:16:58;;;;;;;5.67;5.20;;;;;;;4.21;74.96;99647.00;5039701;28;20428;-73
2020/12/27 02:19:23;;;;;;;6.07;5.47;;;;;;;4.09;75.75;99654.53;5040836;28;20197;-73
2020/12/27 02:21:48;;;;;;;5.93;5.43;;;;;;;4.57;74.05;99633.81;5041323;28;20177;-72
2020/12/27 02:24:14;;;;;;;5.13;4.73;;;;;;;4.28;74.47;99632.50;5040724;28;20229;-73
2020/12/27 02:26:39;;;;;;;6.03;5.30;;;;;;;4.65;73.32;99627.91;5040840;28;20174;-73
2020/12/27 02:29:08;;;;;;;5.37;4.87;;;;;;;4.51;73.34;99626.84;5040518;28;20305;-73
2020/12/27 02:31:33;;;;;;;6.70;5.03;;;;;;;4.38;73.97;99624.06;5040911;28;20166;-72
2020/12/27 02:33:59;;;;;;;5.60;5.10;;;;;;;4.47;73.06;99625.06;5040622;28;20520;-73
2020/12/27 02:36:24;;;;;;;5.60;5.10;;;;;;;4.92;72.42;99610.25;5041128;28;20184;-73
2020/12/27 02:38:49;;;;;;;6.10;5.13;;;;;;;4.77;72.23;99605.75;5040535;28;20178;-72
2020/12/27 02:41:17;;;;;;;5.10;4.60;;;;;;;4.59;72.79;99599.44;5040605;28;20193;-72
2020/12/27 02:43:42;;;;;;;5.70;5.20;;;;;;;4.88;71.38;99602.47;5041014;28;20443;-73
2020/12/27 02:46:18;;;;;;;5.73;4.50;;;;;;;4.44;72.13;99606.94;5040545;28;20435;-71
2020/12/27 02:48:43;;;;;;;4.90;4.50;;;;;;;4.54;72.30;99607.09;5039670;28;20193;-73
2020/12/27 02:51:10;;;;;;;5.10;4.70;;;;;;;4.66;71.62;99588.34;5040396;28;20417;-72
2020/12/27 02:53:36;;;;;;;5.20;4.33;;;;;;;4.84;70.67;99580.03;5040418;28;20205;-72
2020/12/27 02:56:01;;;;;;;4.43;4.03;;;;;;;4.64;71.21;99582.31;5040711;28;20444;-72
2020/12/27 02:58:26;;;;;;;4.40;4.00;;;;;;;4.68;70.68;99571.19;5040434;28;20190;-72
2020/12/27 03:00:52;;;;;;;4.53;4.20;;;;;;;4.68;70.32;99571.19;5040259;28;20178;-73
2020/12/27 03:03:17;;;;;;;4.80;4.37;;;;;;;4.76;71.17;99552.34;5040515;28;20201;-72
2020/12/27 03:05:42;;;;;;;4.20;3.90;;;;;;;4.52;71.12;99530.53;5040156;28;20571;-73
2020/12/27 03:08:07;;;;;;;3.90;3.60;;;;;;;4.50;70.86;99535.63;5040091;28;20236;-72
2020/12/27 03:10:33;;;;;;;4.40;4.00;;;;;;;4.77;70.47;99525.69;5040390;28;20170;-73
2020/12/27 03:12:58;;;;;;;4.17;3.77;;;;;;;4.84;69.59;99502.56;5040073;28;20522;-72
2020/12/27 03:15:23;;;;;;;4.17;3.77;;;;;;;4.97;68.62;99490.66;5040131;28;20224;-72
2020/12/27 03:17:49;;;;;;;4.30;3.87;;;;;;;4.95;69.32;99482.03;5040276;28;20170;-73
2020/12/27 03:20:16;;;;;;;5.40;3.80;;;;;;;4.91;68.58;99476.81;5039829;28;20174;-73
2020/12/27 03:22:42;;;;;;;5.83;3.67;;;;;;;4.86;68.69;99461.28;5039931;28;20170;-71
2020/12/27 03:25:07;;;;;;;4.00;3.60;;;;;;;4.87;69.08;99473.31;5039851;28;20464;-72
2020/12/27 03:27:33;;;;;;;4.23;3.93;;;;;;;4.94;68.86;99459.63;5039475;28;20770;-72
2020/12/27 03:29:58;;;;;;;4.90;3.73;;;;;;;5.04;67.74;99456.28;5039942;28;20174;-73
2020/12/27 03:32:23;;;;;;;3.90;3.60;;;;;;;5.10;67.42;99444.31;5039517;28;20194;-72
2020/12/27 03:34:49;;;;;;;4.13;3.83;;;;;;;4.81;68.50;99450.88;5039785;28;20174;-73
2020/12/27 03:37:14;;;;;;;3.93;3.53;;;;;;;4.95;66.95;99445.00;5040037;28;20552;-72
2020/12/27 03:39:39;;;;;;;4.20;3.80;;;;;;;5.00;66.95;99436.44;5039469;28;20265;-73
2020/12/27 03:42:04;;;;;;;4.10;3.80;;;;;;;5.14;66.50;99428.88;5039606;28;20257;-72
2020/12/27 03:44:30;;;;;;;4.80;3.50;;;;;;;4.81;67.04;99437.97;5039788;28;20197;-72
2020/12/27 03:46:55;;;;;;;3.60;3.30;;;;;;;4.98;66.33;99425.25;5039397;28;20178;-72
2020/12/27 03:49:20;;;;;;;3.70;3.40;;;;;;;5.37;65.15;99413.59;5039283;28;20202;-72
2020/12/27 03:51:45;;;;;;;3.87;3.57;;;;;;;5.03;66.28;99426.19;5039871;28;20174;-73
2020/12/27 03:54:11;;;;;;;4.00;3.60;;;;;;;4.81;66.92;99400.94;5039310;28;20537;-72
2020/12/27 03:56:36;;;;;;;3.90;3.60;;;;;;;4.86;66.35;99394.13;5039347;28;20256;-72
2020/12/27 03:59:01;;;;;;;3.90;3.60;;;;;;;4.54;67.01;99417.84;5039480;28;20178;-73
2020/12/27 04:01:27;;;;;;;4.07;3.70;;;;;;;4.68;66.29;99375.00;5039037;28;20579;-72
2020/12/27 04:03:52;;;;;;;4.47;4.07;;;;;;;4.64;66.41;99364.59;5039197;28;20174;-73
2020/12/27 04:06:17;;;;;;;4.10;3.60;;;;;;;4.87;65.73;99349.34;5038586;28;20247;-73
2020/12/27 04:08:42;;;;;;;4.20;3.80;;;;;;;4.68;65.63;99359.50;5039100;28;20540;-73
2020/12/27 04:11:08;;;;;;;3.80;3.50;;;;;;;4.92;65.60;99337.38;5038993;28;20178;-73
2020/12/27 04:13:33;;;;;;;4.53;4.13;;;;;;;4.59;66.02;99323.28;5039207;28;20288;-73
2020/12/27 04:16:00;;;;;;;4.17;3.80;;;;;;;4.63;65.83;99321.59;5038916;28;20174;-72
2020/12/27 04:18:26;;;;;;;4.10;3.70;;;;;;;4.82;66.02;99331.25;5038759;28;20185;-73
2020/12/27 04:20:51;;;;;;;3.73;3.43;;;;;;;4.54;65.49;99317.19;5039068;28;20417;-73
2020/12/27 04:23:16;;;;;;;4.97;4.10;;;;;;;4.75;65.24;99307.94;5038774;28;20589;-72
2020/12/27 04:25:42;;;;;;;6.03;4.20;;;;;;;4.57;66.20;99299.16;5038715;28;20607;-72
2020/12/27 04:28:07;;;;;;;4.60;3.70;;;;;;;4.86;64.12;99280.53;5039195;28;20188;-73
2020/12/27 04:30:32;;;;;;;4.33;3.80;;;;;;;4.47;65.65;99294.75;5038554;28;20178;-72
2020/12/27 04:32:57;;;;;;;4.60;4.20;;;;;;;5.17;63.61;99280.78;5038385;28;20206;-72
2020/12/27 04:35:23;;;;;;;4.13;3.73;;;;;;;4.91;63.72;99294.31;5038872;28;20178;-72
2020/12/27 04:37:48;;;;;;;3.90;3.60;;;;;;;4.70;65.06;99279.50;5038505;28;20174;-72
2020/12/27 04:40:13;;;;;;;4.70;4.30;;;;;;;4.60;64.98;99283.72;5037810;28;20185;-72
2020/12/27 04:42:39;;;;;;;4.93;3.87;;;;;;;4.91;63.56;99263.31;5038811;28;20596;-72
2020/12/27 04:45:04;;;;;;;4.20;3.73;;;;;;;4.48;64.62;99279.28;5038280;28;20210;-73
2020/12/27 04:47:30;;;;;;;4.60;3.83;;;;;;;4.35;64.91;99261.94;5038269;28;20215;-73
2020/12/27 04:49:55;;;;;;;3.87;3.57;;;;;;;4.69;64.85;99254.53;5038401;28;20194;-73
2020/12/27 04:52:21;;;;;;;5.43;3.80;;;;;;;4.41;64.80;99248.22;5038188;28;20210;-73
2020/12/27 04:54:48;;;;;;;3.97;3.67;;;;;;;4.44;65.20;99237.94;5037387;28;20174;-72
2020/12/27 04:57:14;;;;;;;4.00;3.70;;;;;;;4.52;64.54;99262.13;5038495;28;20424;-72
2020/12/27 04:59:44;;;;;;;4.50;4.10;;;;;;;4.62;63.80;99255.34;5037129;28;20421;-72
2020/12/27 05:02:09;;;;;;;5.00;3.80;;;;;;;4.59;64.47;99250.13;5037981;28;20444;-73
2020/12/27 05:04:35;;;;;;;3.80;3.50;;;;;;;4.58;63.12;99218.28;5038378;28;20782;-73
2020/12/27 05:07:00;;;;;;;4.50;4.10;;;;;;;4.48;63.96;99232.81;5037988;28;20178;-73
2020/12/27 05:09:27;;;;;;;7.53;4.03;;;;;;;4.50;63.59;99241.44;5037793;28;20272;-72
2020/12/27 05:11:53;;;;;;;4.27;3.97;;;;;;;4.51;63.53;99181.25;5038261;28;20166;-72
2020/12/27 05:14:21;;;;;;;6.00;4.33;;;;;;;4.47;63.88;99183.78;5037715;28;20463;-73
2020/12/27 05:16:52;;;;;;;4.60;4.20;;;;;;;4.42;63.76;99175.13;5037728;28;20698;-72
2020/12/27 05:19:18;;;;;;;4.30;3.90;;;;;;;4.46;62.97;99185.47;5038370;28;20424;-73
2020/12/27 05:21:43;;;;;;;4.70;3.80;;;;;;;4.46;64.07;99162.25;5036964;28;20417;-72
2020/12/27 05:24:09;;;;;;;4.90;4.40;;;;;;;4.62;63.50;99157.25;5037484;28;20480;-73
2020/12/27 05:26:36;;;;;;;5.23;4.80;;;;;;;4.85;62.17;99149.69;5037288;28;20177;-72
2020/12/27 05:29:01;;;;;;;4.87;4.47;;;;;;;4.54;63.05;99155.44;5036619;28;20170;-72
2020/12/27 05:31:38;;;;;;;4.77;4.37;;;;;;;4.76;63.00;99144.44;5037539;28;20424;-72
2020/12/27 05:34:04;;;;;;;5.30;4.80;;;;;;;4.33;63.21;99169.03;5037380;28;20516;-73
2020/12/27 05:36:33;;;;;;;4.70;4.30;;;;;;;4.59;62.29;99132.28;5037395;28;20457;-73
2020/12/27 05:38:58;;;;;;;4.87;4.47;;;;;;;4.73;62.74;99163.34;5036770;28;20432;-72
2020/12/27 05:41:25;;;;;;;6.27;4.83;;;;;;;4.93;61.74;99142.00;5037302;28;20421;-73
2020/12/27 05:44:03;;;;;;;8.50;5.17;;;;;;;4.51;63.80;99139.09;5037356;28;20175;-72
2020/12/27 05:46:30;;;;;;;6.23;4.50;;;;;;;4.36;62.83;99137.25;5037287;28;20421;-72
2020/12/27 05:48:56;;;;;;;5.00;4.53;;;;;;;4.14;63.73;99149.06;5037037;28;20413;-72
2020/12/27 05:51:22;;;;;;;5.37;4.87;;;;;;;4.60;63.29;99103.03;5037922;28;20420;-73
2020/12/27 05:53:50;;;;;;;4.77;4.30;;;;;;;4.02;64.30;99130.06;5037180;28;20468;-73
2020/12/27 05:56:18;;;;;;;5.27;4.77;;;;;;;4.63;62.29;99094.47;5037164;28;20421;-73
2020/12/27 05:58:44;;;;;;;4.87;4.37;;;;;;;4.32;63.25;99086.47;5037552;28;20392;-73
2020/12/27 06:01:18;;;;;;;5.37;4.87;;;;;;;4.32;63.14;99087.34;5036892;28;20428;-73
2020/12/27 06:03:56;;;;;;;4.80;4.40;;;;;;;4.06;64.28;99087.13;5036974;28;20493;-72
2020/12/27 06:06:49;;;;;;;4.97;4.50;;;;;;;4.00;64.06;99069.84;5037129;28;20417;-72
2020/12/27 06:09:45;;;;;;;4.43;4.03;;;;;;;4.13;64.37;99059.66;5037090;28;20792;-71
2020/12/27 06:12:12;;;;;;;5.13;4.57;;;;;;;4.15;63.41;99038.16;5036853;28;20413;-72
2020/12/27 06:14:40;;;;;;;4.80;4.30;;;;;;;4.27;63.44;99027.09;5037087;28;20822;-72
2020/12/27 06:17:16;;;;;;;4.97;4.53;;;;;;;4.31;62.83;99025.41;5036128;28;20459;-73
2020/12/27 06:20:00;;;;;;;6.37;4.67;;;;;;;4.49;62.44;99027.25;5036884;28;20444;-72
2020/12/27 06:22:27;;;;;;;4.00;3.70;;;;;;;4.18;62.85;99040.81;5036974;28;20495;-73
2020/12/27 06:24:56;;;;;;;4.00;3.70;;;;;;;4.12;63.53;99016.69;5036895;28;20475;-72
2020/12/27 06:27:21;;;;;;;4.70;3.87;;;;;;;4.18;62.96;99034.75;5036989;28;20420;-72
2020/12/27 06:29:50;;;;;;;4.80;4.40;;;;;;;4.25;62.56;99023.66;5036901;28;20451;-73
2020/12/27 06:32:17;;;;;;;5.13;3.97;;;;;;;4.08;63.63;99030.41;5036329;28;20202;-73
2020/12/27 06:34:43;;;;;;;4.80;4.40;;;;;;;4.25;63.38;99000.44;5036790;28;20421;-72
2020/12/27 06:37:09;;;;;;;4.40;4.00;;;;;;;4.50;62.04;98990.28;5036943;28;20825;-72
2020/12/27 06:39:34;;;;;;;5.30;4.40;;;;;;;4.37;62.56;98979.00;5037039;28;20421;-73
2020/12/27 06:42:18;;;;;;;4.50;4.10;;;;;;;4.21;62.76;98986.66;5036766;28;20206;-72
2020/12/27 06:44:47;;;;;;;4.80;4.23;;;;;;;4.52;62.45;98973.09;5036831;28;20183;-72
2020/12/27 06:47:14;;;;;;;4.30;3.90;;;;;;;4.10;62.97;98971.94;5036687;28;20420;-73
2020/12/27 06:49:39;;;;;;;4.40;4.00;;;;;;;4.15;63.47;98962.53;5036487;28;20437;-71
2020/12/27 06:52:22;;;;;;;4.57;3.90;;;;;;;4.07;63.28;98971.94;5036877;28;20417;-72
2020/12/27 06:54:56;;;;;;;4.63;4.17;;;;;;;4.35;62.14;98963.50;5036080;28;20170;-73
2020/12/27 06:57:44;;;;;;;4.17;3.87;;;;;;;4.55;61.54;98965.38;5036699;28;20487;-72
2020/12/27 07:00:17;;;;;;;4.00;3.60;;;;;;;4.28;62.59;98946.28;5036539;28;20417;-73
2020/12/27 07:02:43;;;;;;;4.20;3.80;;;;;;;4.21;63.46;98952.25;5038758;28;20703;-73
2020/12/27 07:05:08;;;;;;;4.00;3.70;;;;;;;4.59;61.67;98946.44;5039510;28;20425;-73
2020/12/27 07:07:44;;;;;;;4.93;4.43;;;;;;;4.50;61.97;98941.25;5039597;28;20682;-72
2020/12/27 07:10:10;;;;;;;4.27;3.90;;;;;;;4.34;62.39;98928.28;5040178;28;20200;-73
2020/12/27 07:12:35;;;;;;;3.73;3.10;;;;;;;3.98;63.96;98916.88;5040204;28;20460;-73
2020/12/27 07:15:00;;;;;;;4.10;3.80;;;;;;;4.60;61.91;98931.81;5039647;28;20424;-72
2020/12/27 07:17:33;;;;;;;4.53;3.60;;;;;;;4.50;61.94;98910.28;5040091;28;20225;-73
2020/12/27 07:20:00;;;;;;;3.73;3.43;;;;;;;4.33;62.16;98911.06;5039261;28;20170;-73
2020/12/27 07:22:27;;;;;;;3.60;3.30;;;;;;;4.61;61.16;98897.41;5039923;28;20413;-73
2020/12/27 07:24:52;;;;;;;4.30;3.30;;;;;;;4.44;61.76;98894.75;5039864;28;20460;-72
2020/12/27 07:27:18;;;;;;;4.20;3.90;;;;;;;4.58;62.08;98877.63;5040359;28;20439;-73
2020/12/27 07:29:58;;;;;;;4.37;3.87;;;;;;;4.47;61.23;98884.47;5039718;28;20182;-73
2020/12/27 07:32:24;;;;;;;4.00;3.70;;;;;;;4.41;61.45;98884.44;5038973;28;20475;-73
2020/12/27 07:34:51;;;;;;;4.53;4.13;;;;;;;4.52;61.50;98859.56;5039825;28;20448;-72
2020/12/27 07:37:22;;;;;;;4.20;3.47;;;;;;;4.86;61.14;98867.41;5039724;28;20419;-72
2020/12/27 07:39:53;;;;;;;3.80;3.47;;;;;;;4.20;62.63;98843.06;5039943;28;20443;-72
2020/12/27 07:42:24;;;;;;;4.03;3.60;;;;;;;4.53;61.65;98845.78;5039565;28;20752;-73
2020/12/27 07:44:50;;;;;;;3.93;3.63;;;;;;;4.48;61.97;98840.59;5039698;28;20838;-73
2020/12/27 07:47:15;;;;;;;3.63;3.33;;;;;;;4.74;60.51;98831.22;5039444;28;20413;-73
2020/12/27 07:49:41;;;;;;;3.53;3.23;;;;;;;4.44;61.73;98827.66;5038622;28;20499;-73
2020/12/27 07:52:06;;;;;;;4.30;3.90;;;;;;;4.48;60.85;98824.25;5039565;28;20182;-74
2020/12/27 07:54:32;;;;;;;3.67;3.33;;;;;;;4.50;61.71;98825.13;5039354;28;20544;-73
2020/12/27 07:56:58;;;;;;;5.73;3.87;;;;;;;4.39;61.65;98840.56;5039120;28;20182;-73
2020/12/27 07:59:23;;;;;;;3.90;3.50;;;;;;;4.41;61.56;98807.03;5039513;28;20178;-73
2020/12/27 08:01:48;;;;;;;4.13;3.73;;;;;;;4.32;62.08;98810.47;5039074;28;20424;-72
2020/12/27 08:04:14;;;;;;;3.70;3.40;;;;;;;4.55;61.03;98820.84;5039003;28;20197;-73
2020/12/27 08:06:40;;;;;;;3.90;3.60;;;;;;;4.79;60.30;98794.22;5039510;28;20248;-72
2020/12/27 08:09:11;;;;;;;4.30;3.93;;;;;;;4.52;61.35;98790.72;5038914;28;20624;-73
2020/12/27 08:11:38;;;;;;;4.30;4.00;;;;;;;4.55;61.37;98800.19;5038881;28;20811;-72
2020/12/27 08:14:05;;;;;;;3.27;3.07;;;;;;;4.33;61.80;98770.88;5038018;28;20456;-73
2020/12/27 08:16:30;;;;;;;4.17;3.80;;;;;;;4.37;62.27;98794.13;5038857;28;20416;-72
2020/12/27 08:19:10;;;;;;;3.50;3.20;;;;;;;4.24;62.52;98789.78;5038664;28;20425;-72
2020/12/27 08:21:37;;;;;;;3.77;3.47;;;;;;;4.22;62.15;98770.84;5038680;28;20257;-72
2020/12/27 08:24:06;;;;;;;4.07;3.77;;;;;;;4.37;61.17;98751.97;5038377;28;20908;-73
2020/12/27 08:26:34;;;;;;;3.97;3.57;;;;;;;4.41;62.98;98748.56;5038763;28;20787;-72
2020/12/27 08:29:23;;;;;;;3.97;3.67;;;;;;;4.59;61.56;98757.19;5038897;28;20669;-73
2020/12/27 08:31:51;;;;;;;3.73;3.43;;;;;;;4.72;61.04;98751.19;5038667;28;20435;-72
2020/12/27 08:34:21;;;;;;;4.63;3.10;;;;;;;4.32;61.78;98744.25;5038527;28;20739;-72
2020/12/27 08:36:48;;;;;;;3.73;3.40;;;;;;;4.43;61.97;98740.84;5038378;28;20551;-73
2020/12/27 08:39:41;;;;;;;4.23;3.83;;;;;;;4.66;61.04;98717.63;5038425;28;20686;-72
2020/12/27 08:42:08;;;;;;;4.70;3.43;;;;;;;4.86;60.50;98726.25;5038398;28;20417;-73
2020/12/27 08:44:56;;;;;;;4.03;3.50;;;;;;;4.73;60.80;98732.25;5038547;28;20417;-73
2020/12/27 08:47:48;;;;;;;3.60;3.30;;;;;;;4.43;62.51;98710.72;5038368;28;20421;-73
2020/12/27 08:50:15;;;;;;;3.60;3.30;;;;;;;4.85;61.14;98708.19;5038011;28;20436;-72
2020/12/27 08:52:45;;;;;;;4.00;3.70;;;;;;;4.66;61.85;98703.00;5037313;28;20551;-72
2020/12/27 08:55:12;;;;;;;3.90;3.50;;;;;;;4.27;62.45;98675.44;5037260;28;20417;-73
2020/12/27 08:57:37;;;;;;;4.27;3.87;;;;;;;4.90;61.26;98688.38;5037642;28;20459;-73
2020/12/27 09:00:08;;;;;;;3.60;3.30;;;;;;;4.80;61.10;98691.81;5037194;28;20806;-73
2020/12/27 09:02:33;;;;;;;4.00;3.70;;;;;;;4.83;61.95;98697.84;5038060;28;20178;-72
2020/12/27 09:05:09;;;;;;;3.50;3.20;;;;;;;4.53;63.54;98670.31;5038359;28;20661;-72
2020/12/27 09:07:36;;;;;;;4.00;3.60;;;;;;;4.74;63.00;98661.72;5037863;28;20243;-73
2020/12/27 09:10:12;;;;;;;3.80;3.50;;;;;;;4.65;64.43;98667.72;5036949;28;20693;-72
2020/12/27 09:12:40;;;;;;;4.10;3.57;;;;;;;4.36;64.71;98645.34;5037902;28;20782;-72
2020/12/27 09:15:34;;;;;;;4.70;4.30;;;;;;;4.51;65.60;98643.66;5036904;28;20421;-72
2020/12/27 09:18:04;;;;;;;4.17;3.40;;;;;;;4.51;65.23;98641.91;5036898;28;20451;-72
2020/12/27 09:20:33;;;;;;;3.80;3.50;;;;;;;4.53;65.31;98624.75;5037453;28;20691;-73
2020/12/27 09:22:58;;;;;;;5.30;3.70;;;;;;;4.78;64.25;98621.28;5037591;28;20653;-73
2020/12/27 09:25:25;;;;;;;3.50;3.20;;;;;;;4.43;63.75;98623.00;5037191;28;20522;-73
2020/12/27 09:27:51;;;;;;;4.97;3.43;;;;;;;4.58;63.27;98622.13;5037928;28;20178;-72
2020/12/27 09:30:19;;;;;;;3.67;3.37;;;;;;;4.57;63.98;98641.06;5036561;28;20420;-72
2020/12/27 09:32:45;;;;;;;3.73;3.43;;;;;;;4.58;64.40;98609.25;5037398;28;20469;-73
2020/12/27 09:35:21;;;;;;;3.90;3.50;;;;;;;4.61;63.94;98586.00;5037910;28;21073;-73
2020/12/27 09:37:47;;;;;;;4.10;3.80;;;;;;;4.96;63.34;98584.22;5037583;28;20185;-72
2020/12/27 09:40:17;;;;;;;3.83;3.43;;;;;;;4.62;63.28;98631.59;5037294;28;20431;-73
2020/12/27 09:42:43;;;;;;;3.70;3.40;;;;;;;4.76;63.65;98568.78;5037334;28;20484;-73
2020/12/27 09:45:29;;;;;;;3.90;3.40;;;;;;;4.74;63.21;98586.00;5036585;28;20516;-73
2020/12/27 09:47:56;;;;;;;4.17;3.77;;;;;;;4.94;62.38;98542.94;5037129;28;20456;-73
2020/12/27 09:50:37;;;;;;;4.33;3.93;;;;;;;4.55;63.14;98567.97;5037206;28;20436;-72
2020/12/27 09:53:03;;;;;;;5.27;3.30;;;;;;;4.97;62.29;98560.97;5037190;28;20769;-73
2020/12/27 09:55:29;;;;;;;3.90;3.60;;;;;;;5.22;61.19;98529.91;5037327;28;20417;-72
2020/12/27 09:57:55;;;;;;;4.03;3.23;;;;;;;4.54;63.42;98530.97;5037075;28;20417;-73
2020/12/27 10:00:20;;;;;;;3.73;3.43;;;;;;;5.09;62.03;98515.31;5037107;28;20536;-73
2020/12/27 10:02:46;;;;;;;3.73;3.30;;;;;;;5.10;61.19;98523.06;5037492;28;20189;-72
2020/12/27 10:05:11;;;;;;;3.47;3.17;;;;;;;4.71;62.64;98514.59;5036428;28;20170;-73
2020/12/27 10:07:37;;;;;;;3.83;3.53;;;;;;;5.25;60.76;98510.94;5037063;28;20178;-72
2020/12/27 10:10:04;;;;;;;4.13;2.90;;;;;;;5.03;61.23;98499.00;5037376;28;20522;-73
2020/12/27 10:12:30;;;;;;;3.90;3.60;;;;;;;5.00;61.50;98499.00;5036936;28;20479;-73
2020/12/27 10:14:56;;;;;;;4.00;3.60;;;;;;;5.17;61.74;98505.84;5036933;28;20450;-73
2020/12/27 10:17:21;;;;;;;4.00;3.60;;;;;;;5.37;61.28;98503.13;5037194;28;20424;-72
2020/12/27 10:19:46;;;;;;;3.90;3.60;;;;;;;5.17;61.72;98487.75;5036809;28;20212;-72
2020/12/27 10:22:12;;;;;;;4.10;3.80;;;;;;;5.68;59.92;98477.09;5036979;28;20201;-73
2020/12/27 10:24:37;;;;;;;4.57;3.77;;;;;;;5.54;60.48;98485.78;5036894;28;20217;-72
2020/12/27 10:27:04;;;;;;;3.43;3.13;;;;;;;5.12;60.40;98482.59;5036736;28;20540;-72
2020/12/27 10:29:30;;;;;;;3.27;3.00;;;;;;;4.92;61.99;98481.81;5036846;28;20166;-73
2020/12/27 10:32:00;;;;;;;3.27;2.97;;;;;;;4.71;61.45;98489.63;5036617;28;20451;-72
2020/12/27 10:34:27;;;;;;;3.40;3.10;;;;;;;5.17;60.65;98449.00;5036468;28;20260;-73
2020/12/27 10:36:53;;;;;;;3.30;3.00;;;;;;;4.98;61.16;98462.00;5037691;28;20413;-72
2020/12/27 10:39:19;;;;;;;3.37;3.00;;;;;;;5.20;60.50;98456.72;5040440;28;20417;-73
2020/12/27 10:41:46;;;;;;;3.63;3.33;;;;;;;5.02;60.74;98455.97;5039760;28;20783;-72
2020/12/27 10:44:12;;;;;;;2.80;2.60;;;;;;;4.95;60.39;98462.03;5041023;28;20401;-73
2020/12/27 10:46:38;;;;;;;3.63;3.33;;;;;;;5.22;60.61;98432.63;5039838;28;20427;-72
2020/12/27 10:49:04;;;;;;;3.33;3.00;;;;;;;5.10;60.51;98436.97;5040302;28;20433;-73
2020/12/27 10:51:36;;;;;;;3.00;2.70;;;;;;;5.05;60.62;98424.94;5040779;28;20449;-72
2020/12/27 10:54:02;;;;;;;2.97;2.77;;;;;;;5.62;59.38;98425.47;5040318;28;20206;-73
2020/12/27 10:56:28;;;;;;;3.00;2.70;;;;;;;5.01;60.14;98420.66;5040444;28;20516;-73
2020/12/27 10:58:53;;;;;;;3.23;2.80;;;;;;;5.18;60.43;98409.38;5040600;28;20417;-73
2020/12/27 11:01:18;;;;;;;2.83;2.60;;;;;;;5.49;59.57;98419.50;5040730;28;20174;-72
2020/12/27 11:03:44;;;;;;;3.40;3.10;;;;;;;5.47;59.77;98404.03;5040349;28;20170;-73
2020/12/27 11:06:09;;;;;;;4.40;2.90;;;;;;;5.34;59.70;98415.31;5040623;28;20254;-73
2020/12/27 11:08:34;;;;;;;3.73;3.30;;;;;;;5.37;59.65;98390.31;5040019;28;20217;-73
2020/12/27 11:11:00;;;;;;;3.53;3.13;;;;;;;5.16;59.68;98390.47;5040027;28;20257;-73
2020/12/27 11:13:26;;;;;;;3.27;3.00;;;;;;;5.76;58.81;98366.72;5040375;28;20489;-73
2020/12/27 11:15:51;;;;;;;4.60;3.27;;;;;;;5.59;58.66;98372.06;5039973;28;20185;-73
2020/12/27 11:18:16;;;;;;;2.80;2.60;;;;;;;5.23;59.59;98374.91;5039642;28;20177;-73
2020/12/27 11:20:42;;;;;;;3.50;3.20;;;;;;;5.78;58.78;98348.59;5040016;28;20166;-73
2020/12/27 11:23:07;;;;;;;3.40;3.10;;;;;;;5.74;58.53;98365.91;5039603;28;20543;-73
2020/12/27 11:25:33;;;;;;;3.23;2.93;;;;;;;5.39;59.86;98336.03;5039574;28;20453;-74
2020/12/27 11:27:58;;;;;;;3.47;3.17;;;;;;;5.73;58.77;98346.91;5040163;28;20555;-74
2020/12/27 11:30:23;;;;;;;2.80;2.60;;;;;;;5.43;59.27;98331.72;5039497;28;20170;-73
2020/12/27 11:32:49;;;;;;;3.13;2.90;;;;;;;5.64;58.41;98338.41;5039628;28;20229;-74
2020/12/27 11:35:14;;;;;;;2.93;2.63;;;;;;;5.56;58.66;98343.63;5039790;28;20576;-74
2020/12/27 11:37:39;;;;;;;3.10;2.80;;;;;;;5.47;59.41;98320.47;5039450;28;20166;-74
2020/12/27 11:40:05;;;;;;;3.17;2.87;;;;;;;5.29;59.94;98327.53;5054951;28;20170;-73
2020/12/27 11:42:30;;;;;;;3.50;2.87;;;;;;;5.39;59.43;98312.78;5039879;28;20161;-73
2020/12/27 11:44:55;;;;;;;3.30;3.00;;;;;;;5.76;59.03;98301.25;5039442;28;20264;-73